sensor_id;sensor_type;location;lat;lon;timestamp;pressure;altitude;pressure_sealevel;temperature;humidity
72570;BME280;60594;50.204;8.844;2023-08-31T00:01:17;99295.53;;;13.68;100.00
72570;BME280;60594;50.204;8.844;2023-08-31T00:03:44;99292.00;;;13.67;100.00
72570;BME280;60594;50.204;8.844;2023-08-31T00:06:11;99290.34;;;13.66;100.00
72570;BME280;60594;50.204;8.844;2023-08-31T00:08:37;99292.00;;;13.67;100.00
72570;BME280;60594;50.204;8.844;2023-08-31T00:11:04;99288.47;;;13.66;100.00
72570;BME280;60594;50.204;8.844;2023-08-31T00:13:30;99299.03;;;13.68;100.00
72570;BME280;60594;50.204;8.844;2023-08-31T00:15:57;99299.72;;;13.70;100.00
72570;BME280;60594;50.204;8.844;2023-08-31T00:18:24;99300.03;;;13.59;100.00
72570;BME280;60594;50.204;8.844;2023-08-31T00:20:51;99297.84;;;13.62;100.00
72570;BME280;60594;50.204;8.844;2023-08-31T00:23:18;99309.25;;;13.73;100.00
72570;BME280;60594;50.204;8.844;2023-08-31T00:25:56;99248.63;;;13.39;100.00
72570;BME280;60594;50.204;8.844;2023-08-31T00:28:23;99308.75;;;13.69;100.00
72570;BME280;60594;50.204;8.844;2023-08-31T00:30:54;99310.44;;;13.70;100.00
72570;BME280;60594;50.204;8.844;2023-08-31T00:33:20;99294.50;;;13.60;100.00
72570;BME280;60594;50.204;8.844;2023-08-31T00:35:47;99291.84;;;13.68;100.00
72570;BME280;60594;50.204;8.844;2023-08-31T00:38:14;99302.06;;;13.65;100.00
72570;BME280;60594;50.204;8.844;2023-08-31T00:40:44;99294.34;;;13.62;100.00
72570;BME280;60594;50.204;8.844;2023-08-31T00:43:13;99303.25;;;13.71;100.00
72570;BME280;60594;50.204;8.844;2023-08-31T00:45:42;99296.72;;;13.65;100.00
72570;BME280;60594;50.204;8.844;2023-08-31T00:48:09;99297.84;;;13.62;100.00
72570;BME280;60594;50.204;8.844;2023-08-31T00:50:36;99296.00;;;13.55;100.00
72570;BME280;60594;50.204;8.844;2023-08-31T00:53:03;99307.59;;;13.63;100.00
72570;BME280;60594;50.204;8.844;2023-08-31T00:55:32;99303.38;;;13.61;100.00
72570;BME280;60594;50.204;8.844;2023-08-31T00:57:59;99307.22;;;13.66;100.00
72570;BME280;60594;50.204;8.844;2023-08-31T01:00:49;99319.13;;;13.72;100.00
72570;BME280;60594;50.204;8.844;2023-08-31T01:03:22;99313.75;;;13.72;100.00
72570;BME280;60594;50.204;8.844;2023-08-31T01:11:59;99325.13;;;13.58;100.00
72570;BME280;60594;50.204;8.844;2023-08-31T01:14:32;99329.31;;;13.52;100.00
72570;BME280;60594;50.204;8.844;2023-08-31T01:17:00;99322.91;;;13.45;100.00
72570;BME280;60594;50.204;8.844;2023-08-31T01:19:48;99326.94;;;13.49;100.00
72570;BME280;60594;50.204;8.844;2023-08-31T01:22:31;99320.75;;;13.49;100.00
72570;BME280;60594;50.204;8.844;2023-08-31T01:25:00;99330.41;;;13.42;100.00
72570;BME280;60594;50.204;8.844;2023-08-31T01:27:31;99336.97;;;13.47;100.00
72570;BME280;60594;50.204;8.844;2023-08-31T01:29:58;99336.63;;;13.42;100.00
72570;BME280;60594;50.204;8.844;2023-08-31T01:32:25;99337.13;;;13.46;100.00
72570;BME280;60594;50.204;8.844;2023-08-31T01:34:52;99333.03;;;13.26;100.00
72570;BME280;60594;50.204;8.844;2023-08-31T01:37:30;99342.38;;;13.14;100.00
72570;BME280;60594;50.204;8.844;2023-08-31T01:40:03;99340.06;;;13.27;100.00
72570;BME280;60594;50.204;8.844;2023-08-31T01:42:33;99340.75;;;13.29;100.00
72570;BME280;60594;50.204;8.844;2023-08-31T01:45:00;99345.28;;;13.36;100.00
72570;BME280;60594;50.204;8.844;2023-08-31T01:47:27;99339.13;;;13.36;100.00
72570;BME280;60594;50.204;8.844;2023-08-31T01:49:54;99344.41;;;13.28;100.00
72570;BME280;60594;50.204;8.844;2023-08-31T01:52:20;99348.06;;;13.19;100.00
72570;BME280;60594;50.204;8.844;2023-08-31T01:54:47;99347.56;;;13.15;100.00
72570;BME280;60594;50.204;8.844;2023-08-31T01:57:13;99337.03;;;13.22;100.00
72570;BME280;60594;50.204;8.844;2023-08-31T01:59:59;99328.69;;;13.25;100.00
72570;BME280;60594;50.204;8.844;2023-08-31T02:02:26;99341.69;;;13.20;100.00
72570;BME280;60594;50.204;8.844;2023-08-31T02:04:52;99335.88;;;13.24;100.00
72570;BME280;60594;50.204;8.844;2023-08-31T02:07:19;99339.75;;;13.30;100.00
72570;BME280;60594;50.204;8.844;2023-08-31T02:09:45;99334.75;;;13.35;100.00
72570;BME280;60594;50.204;8.844;2023-08-31T02:12:12;99336.22;;;13.29;100.00
72570;BME280;60594;50.204;8.844;2023-08-31T02:14:38;99336.28;;;13.04;100.00
72570;BME280;60594;50.204;8.844;2023-08-31T02:17:05;99334.16;;;12.90;100.00
72570;BME280;60594;50.204;8.844;2023-08-31T02:19:31;99342.47;;;13.04;100.00
72570;BME280;60594;50.204;8.844;2023-08-31T02:21:59;99348.19;;;13.09;100.00
72570;BME280;60594;50.204;8.844;2023-08-31T02:24:25;99349.34;;;13.07;100.00
72570;BME280;60594;50.204;8.844;2023-08-31T02:26:52;99351.91;;;13.16;100.00
72570;BME280;60594;50.204;8.844;2023-08-31T02:29:18;99360.53;;;13.36;100.00
72570;BME280;60594;50.204;8.844;2023-08-31T02:31:45;99362.16;;;13.29;100.00
72570;BME280;60594;50.204;8.844;2023-08-31T02:34:12;99365.47;;;13.23;100.00
72570;BME280;60594;50.204;8.844;2023-08-31T02:36:39;99361.75;;;13.16;100.00
72570;BME280;60594;50.204;8.844;2023-08-31T02:39:05;99358.94;;;12.92;100.00
72570;BME280;60594;50.204;8.844;2023-08-31T02:41:32;99361.91;;;12.89;100.00
72570;BME280;60594;50.204;8.844;2023-08-31T02:43:59;99366.19;;;12.99;100.00
72570;BME280;60594;50.204;8.844;2023-08-31T02:46:26;99357.06;;;13.10;100.00
72570;BME280;60594;50.204;8.844;2023-08-31T02:48:52;99354.03;;;13.13;100.00
72570;BME280;60594;50.204;8.844;2023-08-31T02:51:19;99362.00;;;13.30;100.00
72570;BME280;60594;50.204;8.844;2023-08-31T02:53:45;99355.19;;;13.44;100.00
72570;BME280;60594;50.204;8.844;2023-08-31T02:56:12;99360.00;;;13.32;100.00
72570;BME280;60594;50.204;8.844;2023-08-31T02:58:38;99358.03;;;13.09;100.00
72570;BME280;60594;50.204;8.844;2023-08-31T03:01:09;99356.25;;;13.17;100.00
72570;BME280;60594;50.204;8.844;2023-08-31T03:03:41;99357.41;;;13.15;100.00
72570;BME280;60594;50.204;8.844;2023-08-31T03:06:09;99356.28;;;13.25;100.00
72570;BME280;60594;50.204;8.844;2023-08-31T03:08:36;99359.19;;;13.32;100.00
72570;BME280;60594;50.204;8.844;2023-08-31T03:11:04;99360.19;;;13.05;100.00
72570;BME280;60594;50.204;8.844;2023-08-31T03:13:32;99359.06;;;13.16;100.00
72570;BME280;60594;50.204;8.844;2023-08-31T03:15:59;99348.38;;;13.16;100.00
72570;BME280;60594;50.204;8.844;2023-08-31T03:18:27;99346.72;;;12.89;100.00
72570;BME280;60594;50.204;8.844;2023-08-31T03:20:55;99343.03;;;12.90;100.00
72570;BME280;60594;50.204;8.844;2023-08-31T03:23:24;99343.69;;;12.92;100.00
72570;BME280;60594;50.204;8.844;2023-08-31T03:25:51;99349.97;;;13.01;100.00
72570;BME280;60594;50.204;8.844;2023-08-31T03:28:17;99345.63;;;13.00;100.00
72570;BME280;60594;50.204;8.844;2023-08-31T03:30:44;99346.28;;;12.76;100.00
72570;BME280;60594;50.204;8.844;2023-08-31T03:33:11;99350.69;;;12.85;100.00
72570;BME280;60594;50.204;8.844;2023-08-31T03:35:39;99350.13;;;12.74;100.00
72570;BME280;60594;50.204;8.844;2023-08-31T03:38:05;99351.53;;;12.86;100.00
72570;BME280;60594;50.204;8.844;2023-08-31T03:40:34;99351.03;;;12.82;100.00
72570;BME280;60594;50.204;8.844;2023-08-31T03:43:01;99349.81;;;12.77;100.00
72570;BME280;60594;50.204;8.844;2023-08-31T03:45:27;99358.91;;;12.66;100.00
72570;BME280;60594;50.204;8.844;2023-08-31T03:47:54;99359.31;;;12.71;100.00
72570;BME280;60594;50.204;8.844;2023-08-31T03:50:21;99357.41;;;12.64;100.00
72570;BME280;60594;50.204;8.844;2023-08-31T03:52:47;99368.41;;;12.61;100.00
72570;BME280;60594;50.204;8.844;2023-08-31T03:55:14;99377.38;;;12.77;100.00
72570;BME280;60594;50.204;8.844;2023-08-31T03:57:40;99380.44;;;12.82;100.00
72570;BME280;60594;50.204;8.844;2023-08-31T04:00:15;99388.28;;;12.84;100.00
72570;BME280;60594;50.204;8.844;2023-08-31T04:02:42;99380.28;;;12.84;100.00
72570;BME280;60594;50.204;8.844;2023-08-31T04:05:12;99385.59;;;12.58;100.00
72570;BME280;60594;50.204;8.844;2023-08-31T04:07:43;99386.28;;;12.60;100.00
72570;BME280;60594;50.204;8.844;2023-08-31T04:10:09;99400.91;;;12.74;100.00
72570;BME280;60594;50.204;8.844;2023-08-31T04:12:36;99398.81;;;12.60;100.00
72570;BME280;60594;50.204;8.844;2023-08-31T04:15:03;99397.28;;;12.57;100.00
72570;BME280;60594;50.204;8.844;2023-08-31T04:17:30;99407.44;;;12.71;100.00
72570;BME280;60594;50.204;8.844;2023-08-31T04:19:57;99403.91;;;12.71;100.00
72570;BME280;60594;50.204;8.844;2023-08-31T04:22:23;99407.72;;;12.68;100.00
72570;BME280;60594;50.204;8.844;2023-08-31T04:24:52;99411.41;;;12.67;100.00
72570;BME280;60594;50.204;8.844;2023-08-31T04:27:18;99406.13;;;12.58;100.00
72570;BME280;60594;50.204;8.844;2023-08-31T04:29:46;99410.94;;;12.54;100.00
72570;BME280;60594;50.204;8.844;2023-08-31T04:32:13;99411.09;;;12.53;100.00
72570;BME280;60594;50.204;8.844;2023-08-31T04:34:40;99421.09;;;12.68;100.00
72570;BME280;60594;50.204;8.844;2023-08-31T04:37:06;99415.34;;;12.81;100.00
72570;BME280;60594;50.204;8.844;2023-08-31T04:39:33;99424.72;;;12.85;100.00
72570;BME280;60594;50.204;8.844;2023-08-31T04:41:59;99423.13;;;12.74;100.00
72570;BME280;60594;50.204;8.844;2023-08-31T04:44:26;99429.47;;;12.73;100.00
72570;BME280;60594;50.204;8.844;2023-08-31T04:46:52;99424.22;;;12.64;100.00
72570;BME280;60594;50.204;8.844;2023-08-31T04:49:19;99427.06;;;12.62;100.00
72570;BME280;60594;50.204;8.844;2023-08-31T04:51:45;99418.28;;;12.35;100.00
72570;BME280;60594;50.204;8.844;2023-08-31T04:54:12;99424.09;;;12.48;100.00
72570;BME280;60594;50.204;8.844;2023-08-31T04:56:39;99429.34;;;12.57;100.00
72570;BME280;60594;50.204;8.844;2023-08-31T04:59:05;99428.19;;;12.60;100.00
72570;BME280;60594;50.204;8.844;2023-08-31T05:01:32;99441.88;;;12.57;100.00
72570;BME280;60594;50.204;8.844;2023-08-31T05:03:58;99444.78;;;12.46;100.00
72570;BME280;60594;50.204;8.844;2023-08-31T05:06:25;99443.63;;;12.48;100.00
72570;BME280;60594;50.204;8.844;2023-08-31T05:08:52;99444.31;;;12.50;100.00
72570;BME280;60594;50.204;8.844;2023-08-31T05:11:18;99448.84;;;12.32;100.00
72570;BME280;60594;50.204;8.844;2023-08-31T05:13:47;99448.16;;;12.30;100.00
72570;BME280;60594;50.204;8.844;2023-08-31T05:16:13;99448.59;;;12.43;100.00
72570;BME280;60594;50.204;8.844;2023-08-31T05:18:40;99458.13;;;12.46;100.00
72570;BME280;60594;50.204;8.844;2023-08-31T05:21:06;99453.44;;;12.40;100.00
72570;BME280;60594;50.204;8.844;2023-08-31T05:23:33;99466.47;;;12.25;100.00
72570;BME280;60594;50.204;8.844;2023-08-31T05:26:00;99467.69;;;12.31;100.00
72570;BME280;60594;50.204;8.844;2023-08-31T05:28:28;99472.66;;;12.26;100.00
72570;BME280;60594;50.204;8.844;2023-08-31T05:30:56;99478.06;;;12.34;100.00
72570;BME280;60594;50.204;8.844;2023-08-31T05:33:24;99477.63;;;12.38;100.00
72570;BME280;60594;50.204;8.844;2023-08-31T05:35:55;99481.81;;;12.41;100.00
72570;BME280;60594;50.204;8.844;2023-08-31T05:38:21;99481.66;;;12.42;100.00
72570;BME280;60594;50.204;8.844;2023-08-31T05:40:48;99484.88;;;12.28;100.00
72570;BME280;60594;50.204;8.844;2023-08-31T05:43:15;99488.47;;;12.37;100.00
72570;BME280;60594;50.204;8.844;2023-08-31T05:45:42;99483.78;;;12.39;100.00
72570;BME280;60594;50.204;8.844;2023-08-31T05:48:09;99486.63;;;12.37;100.00
72570;BME280;60594;50.204;8.844;2023-08-31T05:50:35;99481.53;;;12.44;100.00
72570;BME280;60594;50.204;8.844;2023-08-31T05:53:05;99486.16;;;12.42;100.00
72570;BME280;60594;50.204;8.844;2023-08-31T05:55:31;99498.84;;;12.40;100.00
72570;BME280;60594;50.204;8.844;2023-08-31T05:57:59;99491.97;;;12.37;100.00
72570;BME280;60594;50.204;8.844;2023-08-31T06:00:26;99497.47;;;12.36;100.00
72570;BME280;60594;50.204;8.844;2023-08-31T06:02:53;99494.97;;;12.34;100.00
72570;BME280;60594;50.204;8.844;2023-08-31T06:05:19;99504.66;;;12.35;100.00
72570;BME280;60594;50.204;8.844;2023-08-31T06:07:46;99504.94;;;12.32;100.00
72570;BME280;60594;50.204;8.844;2023-08-31T06:10:13;99514.47;;;12.35;100.00
72570;BME280;60594;50.204;8.844;2023-08-31T06:12:41;99527.84;;;12.35;100.00
72570;BME280;60594;50.204;8.844;2023-08-31T06:15:08;99522.56;;;12.43;100.00
72570;BME280;60594;50.204;8.844;2023-08-31T06:17:34;99521.59;;;12.44;100.00
72570;BME280;60594;50.204;8.844;2023-08-31T06:20:01;99531.81;;;12.48;100.00
72570;BME280;60594;50.204;8.844;2023-08-31T06:22:29;99522.75;;;12.59;100.00
72570;BME280;60594;50.204;8.844;2023-08-31T06:24:56;99527.25;;;12.58;100.00
72570;BME280;60594;50.204;8.844;2023-08-31T06:27:22;99534.81;;;12.45;100.00
72570;BME280;60594;50.204;8.844;2023-08-31T06:29:49;99529.41;;;12.55;100.00
72570;BME280;60594;50.204;8.844;2023-08-31T06:32:16;99529.34;;;12.64;100.00
72570;BME280;60594;50.204;8.844;2023-08-31T06:34:43;99516.72;;;12.57;100.00
72570;BME280;60594;50.204;8.844;2023-08-31T06:37:10;99523.50;;;12.51;100.00
72570;BME280;60594;50.204;8.844;2023-08-31T06:39:36;99523.34;;;12.53;100.00
72570;BME280;60594;50.204;8.844;2023-08-31T06:42:03;99528.19;;;12.67;100.00
72570;BME280;60594;50.204;8.844;2023-08-31T06:44:30;99524.81;;;12.65;100.00
72570;BME280;60594;50.204;8.844;2023-08-31T06:46:57;99530.00;;;12.66;100.00
72570;BME280;60594;50.204;8.844;2023-08-31T06:49:23;99529.34;;;12.64;100.00
72570;BME280;60594;50.204;8.844;2023-08-31T06:51:50;99526.88;;;12.71;100.00
72570;BME280;60594;50.204;8.844;2023-08-31T06:54:17;99533.38;;;12.86;100.00
72570;BME280;60594;50.204;8.844;2023-08-31T06:56:43;99534.44;;;12.93;100.00
72570;BME280;60594;50.204;8.844;2023-08-31T06:59:10;99537.28;;;12.91;100.00
72570;BME280;60594;50.204;8.844;2023-08-31T07:01:36;99539.06;;;13.00;100.00
72570;BME280;60594;50.204;8.844;2023-08-31T07:04:03;99541.56;;;13.02;100.00
72570;BME280;60594;50.204;8.844;2023-08-31T07:06:33;99545.66;;;12.96;100.00
72570;BME280;60594;50.204;8.844;2023-08-31T07:08:59;99553.88;;;12.95;100.00
72570;BME280;60594;50.204;8.844;2023-08-31T07:11:26;99551.88;;;13.14;100.00
72570;BME280;60594;50.204;8.844;2023-08-31T07:13:53;99559.13;;;13.22;100.00
72570;BME280;60594;50.204;8.844;2023-08-31T07:16:20;99567.59;;;13.35;100.00
72570;BME280;60594;50.204;8.844;2023-08-31T07:18:46;99571.16;;;13.43;100.00
72570;BME280;60594;50.204;8.844;2023-08-31T07:21:13;99570.75;;;13.56;100.00
72570;BME280;60594;50.204;8.844;2023-08-31T07:23:39;99566.91;;;13.58;100.00
72570;BME280;60594;50.204;8.844;2023-08-31T07:26:06;99575.34;;;13.63;100.00
72570;BME280;60594;50.204;8.844;2023-08-31T07:28:32;99564.09;;;13.60;100.00
72570;BME280;60594;50.204;8.844;2023-08-31T07:31:05;99566.03;;;13.50;100.00
72570;BME280;60594;50.204;8.844;2023-08-31T07:33:33;99574.06;;;13.50;100.00
72570;BME280;60594;50.204;8.844;2023-08-31T07:36:04;99580.81;;;13.54;100.00
72570;BME280;60594;50.204;8.844;2023-08-31T07:38:32;99576.66;;;13.59;100.00
72570;BME280;60594;50.204;8.844;2023-08-31T07:40:59;99584.94;;;13.74;100.00
72570;BME280;60594;50.204;8.844;2023-08-31T07:43:26;99581.69;;;13.88;100.00
72570;BME280;60594;50.204;8.844;2023-08-31T07:45:53;99586.06;;;13.97;100.00
72570;BME280;60594;50.204;8.844;2023-08-31T07:48:20;99588.72;;;13.89;100.00
72570;BME280;60594;50.204;8.844;2023-08-31T07:50:46;99594.66;;;13.75;100.00
72570;BME280;60594;50.204;8.844;2023-08-31T07:53:13;99596.44;;;13.92;100.00
72570;BME280;60594;50.204;8.844;2023-08-31T07:55:40;99592.28;;;13.98;100.00
72570;BME280;60594;50.204;8.844;2023-08-31T07:58:06;99598.16;;;14.01;100.00
72570;BME280;60594;50.204;8.844;2023-08-31T08:00:33;99604.47;;;13.92;100.00
72570;BME280;60594;50.204;8.844;2023-08-31T08:02:59;99596.75;;;13.89;100.00
72570;BME280;60594;50.204;8.844;2023-08-31T08:05:27;99596.78;;;13.97;100.00
72570;BME280;60594;50.204;8.844;2023-08-31T08:07:53;99596.00;;;14.05;100.00
72570;BME280;60594;50.204;8.844;2023-08-31T08:10:20;99602.41;;;14.12;99.21
72570;BME280;60594;50.204;8.844;2023-08-31T08:12:46;99604.34;;;14.02;100.00
72570;BME280;60594;50.204;8.844;2023-08-31T08:15:13;99597.53;;;14.07;100.00
72570;BME280;60594;50.204;8.844;2023-08-31T08:17:40;99608.72;;;14.03;99.82
72570;BME280;60594;50.204;8.844;2023-08-31T08:20:07;99602.75;;;14.17;97.64
72570;BME280;60594;50.204;8.844;2023-08-31T08:22:34;99597.47;;;14.25;95.52
72570;BME280;60594;50.204;8.844;2023-08-31T08:25:02;99595.97;;;14.30;95.21
72570;BME280;60594;50.204;8.844;2023-08-31T08:27:30;99602.22;;;14.39;92.96
72570;BME280;60594;50.204;8.844;2023-08-31T08:30:01;99611.16;;;14.47;92.83
72570;BME280;60594;50.204;8.844;2023-08-31T08:32:27;99608.94;;;14.43;90.08
72570;BME280;60594;50.204;8.844;2023-08-31T08:34:54;99605.59;;;14.41;91.02
72570;BME280;60594;50.204;8.844;2023-08-31T08:37:20;99614.53;;;14.57;91.36
72570;BME280;60594;50.204;8.844;2023-08-31T08:39:49;99614.22;;;14.68;91.12
72570;BME280;60594;50.204;8.844;2023-08-31T08:42:18;99615.31;;;14.91;89.87
72570;BME280;60594;50.204;8.844;2023-08-31T08:44:46;99607.28;;;15.23;92.12
72570;BME280;60594;50.204;8.844;2023-08-31T08:47:13;99611.19;;;15.53;89.36
72570;BME280;60594;50.204;8.844;2023-08-31T08:49:40;99620.75;;;15.63;89.61
72570;BME280;60594;50.204;8.844;2023-08-31T08:52:07;99628.28;;;15.36;90.41
72570;BME280;60594;50.204;8.844;2023-08-31T08:54:35;99626.25;;;15.94;89.01
72570;BME280;60594;50.204;8.844;2023-08-31T08:57:01;99625.69;;;16.14;87.02
72570;BME280;60594;50.204;8.844;2023-08-31T08:59:33;99621.50;;;16.12;85.84
72570;BME280;60594;50.204;8.844;2023-08-31T09:01:59;99637.50;;;15.89;86.72
72570;BME280;60594;50.204;8.844;2023-08-31T09:04:29;99634.81;;;15.89;84.84
72570;BME280;60594;50.204;8.844;2023-08-31T09:06:56;99641.53;;;15.85;84.67
72570;BME280;60594;50.204;8.844;2023-08-31T09:09:23;99650.88;;;16.21;84.58
72570;BME280;60594;50.204;8.844;2023-08-31T09:11:49;99645.63;;;16.36;81.55
72570;BME280;60594;50.204;8.844;2023-08-31T09:14:18;99651.75;;;16.06;80.68
72570;BME280;60594;50.204;8.844;2023-08-31T09:16:46;99657.78;;;16.24;80.20
72570;BME280;60594;50.204;8.844;2023-08-31T09:19:25;99643.28;;;16.49;78.17
72570;BME280;60594;50.204;8.844;2023-08-31T09:21:56;99649.81;;;16.54;78.96
72570;BME280;60594;50.204;8.844;2023-08-31T09:24:23;99645.16;;;16.32;75.84
72570;BME280;60594;50.204;8.844;2023-08-31T09:26:56;99645.38;;;16.15;78.95
72570;BME280;60594;50.204;8.844;2023-08-31T09:29:24;99648.09;;;16.07;78.78
72570;BME280;60594;50.204;8.844;2023-08-31T09:31:51;99652.28;;;16.01;78.44
72570;BME280;60594;50.204;8.844;2023-08-31T09:34:18;99642.03;;;15.97;78.33
72570;BME280;60594;50.204;8.844;2023-08-31T09:36:45;99651.97;;;15.88;78.45
72570;BME280;60594;50.204;8.844;2023-08-31T09:39:14;99643.72;;;15.90;78.59
72570;BME280;60594;50.204;8.844;2023-08-31T09:41:53;99654.47;;;15.90;80.77
72570;BME280;60594;50.204;8.844;2023-08-31T09:44:21;99649.78;;;15.84;79.21
72570;BME280;60594;50.204;8.844;2023-08-31T09:46:47;99650.78;;;16.07;78.85
72570;BME280;60594;50.204;8.844;2023-08-31T09:49:16;99653.53;;;16.37;78.71
72570;BME280;60594;50.204;8.844;2023-08-31T09:51:46;99635.84;;;16.59;77.80
72570;BME280;60594;50.204;8.844;2023-08-31T09:54:17;99641.41;;;16.88;75.41
72570;BME280;60594;50.204;8.844;2023-08-31T09:56:46;99647.06;;;17.01;74.68
72570;BME280;60594;50.204;8.844;2023-08-31T09:59:15;99637.13;;;17.24;74.64
72570;BME280;60594;50.204;8.844;2023-08-31T10:01:44;99638.75;;;17.41;74.81
72570;BME280;60594;50.204;8.844;2023-08-31T10:04:11;99640.91;;;17.15;71.88
72570;BME280;60594;50.204;8.844;2023-08-31T10:06:39;99638.19;;;16.92;74.16
72570;BME280;60594;50.204;8.844;2023-08-31T10:09:07;99644.47;;;16.85;75.19
72570;BME280;60594;50.204;8.844;2023-08-31T10:11:36;99634.91;;;16.74;74.90
72570;BME280;60594;50.204;8.844;2023-08-31T10:14:04;99645.72;;;16.66;74.98
72570;BME280;60594;50.204;8.844;2023-08-31T10:16:31;99648.81;;;16.47;75.61
72570;BME280;60594;50.204;8.844;2023-08-31T10:18:58;99647.16;;;16.46;76.90
72570;BME280;60594;50.204;8.844;2023-08-31T10:21:25;99653.91;;;16.42;76.32
72570;BME280;60594;50.204;8.844;2023-08-31T10:23:52;99651.22;;;16.42;77.60
72570;BME280;60594;50.204;8.844;2023-08-31T10:26:30;99649.84;;;16.38;76.63
72570;BME280;60594;50.204;8.844;2023-08-31T10:28:58;99664.78;;;16.41;77.34
72570;BME280;60594;50.204;8.844;2023-08-31T10:31:30;99660.59;;;16.38;76.74
72570;BME280;60594;50.204;8.844;2023-08-31T10:33:58;99661.63;;;16.45;78.02
72570;BME280;60594;50.204;8.844;2023-08-31T10:36:39;99660.34;;;16.64;78.07
72570;BME280;60594;50.204;8.844;2023-08-31T10:39:15;99645.16;;;17.10;74.36
72570;BME280;60594;50.204;8.844;2023-08-31T10:41:55;99653.69;;;17.21;73.35
72570;BME280;60594;50.204;8.844;2023-08-31T10:44:22;99653.78;;;17.28;73.88
72570;BME280;60594;50.204;8.844;2023-08-31T10:46:50;99653.88;;;17.12;73.61
72570;BME280;60594;50.204;8.844;2023-08-31T10:49:22;99650.59;;;17.02;73.46
72570;BME280;60594;50.204;8.844;2023-08-31T10:51:56;99655.13;;;17.01;73.55
72570;BME280;60594;50.204;8.844;2023-08-31T10:54:30;99650.78;;;17.00;73.46
72570;BME280;60594;50.204;8.844;2023-08-31T10:59:25;99637.47;;;17.52;73.63
72570;BME280;60594;50.204;8.844;2023-08-31T11:01:56;99636.06;;;17.78;71.78
72570;BME280;60594;50.204;8.844;2023-08-31T11:04:24;99633.69;;;17.98;68.90
72570;BME280;60594;50.204;8.844;2023-08-31T11:07:11;99636.47;;;17.90;70.00
72570;BME280;60594;50.204;8.844;2023-08-31T11:09:37;99632.69;;;18.13;69.46
72570;BME280;60594;50.204;8.844;2023-08-31T11:12:04;99635.59;;;18.55;68.62
72570;BME280;60594;50.204;8.844;2023-08-31T11:14:31;99632.13;;;18.76;66.24
72570;BME280;60594;50.204;8.844;2023-08-31T11:16:59;99639.53;;;18.53;65.99
72570;BME280;60594;50.204;8.844;2023-08-31T11:19:28;99628.69;;;18.67;65.70
72570;BME280;60594;50.204;8.844;2023-08-31T11:21:54;99631.84;;;18.85;66.55
72570;BME280;60594;50.204;8.844;2023-08-31T11:24:22;99625.13;;;19.17;64.63
72570;BME280;60594;50.204;8.844;2023-08-31T11:26:51;99632.19;;;18.97;63.95
72570;BME280;60594;50.204;8.844;2023-08-31T11:29:18;99627.16;;;18.94;64.13
72570;BME280;60594;50.204;8.844;2023-08-31T11:31:45;99620.94;;;19.29;61.56
72570;BME280;60594;50.204;8.844;2023-08-31T11:34:12;99627.03;;;19.37;60.66
72570;BME280;60594;50.204;8.844;2023-08-31T11:36:41;99626.59;;;19.55;61.22
72570;BME280;60594;50.204;8.844;2023-08-31T11:39:12;99623.53;;;19.37;62.73
72570;BME280;60594;50.204;8.844;2023-08-31T11:41:40;99627.25;;;19.00;63.62
72570;BME280;60594;50.204;8.844;2023-08-31T11:44:09;99623.91;;;18.84;64.28
72570;BME280;60594;50.204;8.844;2023-08-31T11:46:37;99620.22;;;18.70;64.01
72570;BME280;60594;50.204;8.844;2023-08-31T11:49:04;99619.19;;;19.07;64.65
72570;BME280;60594;50.204;8.844;2023-08-31T11:51:33;99612.91;;;19.35;64.73
72570;BME280;60594;50.204;8.844;2023-08-31T11:54:01;99603.47;;;19.52;60.92
72570;BME280;60594;50.204;8.844;2023-08-31T11:56:45;99611.25;;;19.20;60.10
72570;BME280;60594;50.204;8.844;2023-08-31T11:59:16;99613.91;;;18.99;61.16
72570;BME280;60594;50.204;8.844;2023-08-31T12:01:43;99619.19;;;18.71;61.95
72570;BME280;60594;50.204;8.844;2023-08-31T12:04:19;99604.09;;;18.77;61.87
72570;BME280;60594;50.204;8.844;2023-08-31T12:06:47;99616.34;;;18.44;62.01
72570;BME280;60594;50.204;8.844;2023-08-31T12:09:15;99625.72;;;18.48;63.03
72570;BME280;60594;50.204;8.844;2023-08-31T12:11:41;99611.69;;;18.67;65.56
72570;BME280;60594;50.204;8.844;2023-08-31T12:14:24;99616.78;;;18.76;61.11
72570;BME280;60594;50.204;8.844;2023-08-31T12:16:59;99615.25;;;18.88;61.76
72570;BME280;60594;50.204;8.844;2023-08-31T12:19:27;99620.09;;;19.14;61.06
72570;BME280;60594;50.204;8.844;2023-08-31T12:21:55;99607.81;;;19.11;60.68
72570;BME280;60594;50.204;8.844;2023-08-31T12:24:22;99607.50;;;19.00;59.66
72570;BME280;60594;50.204;8.844;2023-08-31T12:26:50;99622.88;;;18.85;60.54
72570;BME280;60594;50.204;8.844;2023-08-31T12:29:17;99614.66;;;18.72;61.24
72570;BME280;60594;50.204;8.844;2023-08-31T12:31:43;99621.81;;;18.65;61.76
72570;BME280;60594;50.204;8.844;2023-08-31T12:34:10;99621.16;;;18.63;62.51
72570;BME280;60594;50.204;8.844;2023-08-31T12:36:37;99619.81;;;18.88;60.96
72570;BME280;60594;50.204;8.844;2023-08-31T12:39:04;99616.63;;;18.99;59.12
72570;BME280;60594;50.204;8.844;2023-08-31T12:41:33;99617.59;;;19.12;60.09
72570;BME280;60594;50.204;8.844;2023-08-31T12:44:00;99618.56;;;19.05;59.85
72570;BME280;60594;50.204;8.844;2023-08-31T12:46:26;99615.63;;;19.00;60.24
72570;BME280;60594;50.204;8.844;2023-08-31T12:48:53;99614.41;;;18.88;58.88
72570;BME280;60594;50.204;8.844;2023-08-31T12:51:20;99609.63;;;18.69;61.31
72570;BME280;60594;50.204;8.844;2023-08-31T12:53:46;99613.16;;;18.69;61.30
72570;BME280;60594;50.204;8.844;2023-08-31T12:56:13;99611.22;;;18.63;62.01
72570;BME280;60594;50.204;8.844;2023-08-31T12:58:40;99603.53;;;18.81;59.83
72570;BME280;60594;50.204;8.844;2023-08-31T13:01:06;99602.47;;;19.18;60.84
72570;BME280;60594;50.204;8.844;2023-08-31T13:03:34;99609.53;;;19.33;59.04
72570;BME280;60594;50.204;8.844;2023-08-31T13:06:01;99604.00;;;19.20;57.53